createdAt,value
2019-02-26T00:00:42.273Z,10.00
2019-02-26T00:03:07.959Z,9.87
2019-02-26T00:05:35.488Z,10.50
2019-02-26T00:08:02.984Z,10.03
2019-02-26T00:10:31.480Z,10.10
2019-02-26T00:12:59.816Z,10.80
2019-02-26T00:15:29.456Z,11.37
2019-02-26T00:17:56.615Z,10.80
2019-02-26T00:20:24.144Z,11.00
2019-02-26T00:22:53.553Z,11.30
2019-02-26T00:25:20.985Z,11.53
2019-02-26T00:27:49.555Z,11.10
2019-02-26T00:30:18.668Z,12.13
2019-02-26T00:32:46.213Z,11.80
2019-02-26T00:35:13.698Z,11.90
2019-02-26T00:37:41.237Z,12.50
2019-02-26T00:40:10.061Z,12.17
2019-02-26T00:42:38.077Z,11.37
2019-02-26T00:45:07.856Z,12.70
2019-02-26T00:47:36.293Z,12.07
2019-02-26T00:50:05.544Z,11.40
2019-02-26T00:52:34.827Z,10.87
2019-02-26T00:55:05.415Z,11.57
2019-02-26T00:57:33.542Z,10.30
2019-02-26T01:00:03.394Z,10.63
2019-02-26T01:02:31.824Z,8.50
2019-02-26T01:04:59.430Z,7.47
2019-02-26T01:07:28.204Z,8.53
2019-02-26T01:09:56.947Z,8.83
2019-02-26T01:12:25.002Z,9.80
2019-02-26T01:14:52.485Z,9.47
2019-02-26T01:17:19.955Z,10.00
2019-02-26T01:19:47.521Z,10.13
2019-02-26T01:22:15.100Z,11.03
2019-02-26T01:24:42.586Z,11.00
2019-02-26T01:27:10.172Z,11.93
2019-02-26T01:29:37.650Z,11.20
2019-02-26T01:32:08.889Z,11.87
2019-02-26T01:34:34.537Z,11.10
2019-02-26T01:37:03.160Z,10.30
2019-02-26T01:39:31.355Z,10.83
2019-02-26T01:41:58.907Z,11.00
2019-02-26T01:44:30.175Z,10.90
2019-02-26T01:46:57.775Z,10.63
2019-02-26T01:49:26.633Z,10.70
2019-02-26T01:51:54.344Z,11.63
2019-02-26T01:54:21.865Z,10.20
2019-02-26T01:56:52.669Z,10.90
2019-02-26T01:59:19.170Z,10.07
2019-02-26T02:01:48.905Z,10.83
2019-02-26T02:04:17.143Z,10.13
2019-02-26T02:06:45.630Z,11.37
2019-02-26T02:09:13.987Z,11.10
2019-02-26T02:11:42.405Z,10.67
2019-02-26T02:14:10.357Z,10.67
2019-02-26T02:16:39.306Z,9.93
2019-02-26T02:19:06.836Z,12.23
2019-02-26T02:21:35.711Z,10.70
2019-02-26T02:24:03.322Z,9.60
2019-02-26T02:26:30.855Z,10.40
2019-02-26T02:28:58.365Z,10.73
2019-02-26T02:31:30.286Z,10.57
2019-02-26T02:33:55.157Z,11.10
2019-02-26T02:36:23.669Z,10.70
2019-02-26T02:38:52.011Z,10.40
2019-02-26T02:41:19.559Z,10.73
2019-02-26T02:43:47.038Z,9.83
2019-02-26T02:46:14.527Z,9.90
2019-02-26T02:48:42.329Z,10.33
2019-02-26T02:51:13.172Z,10.03
2019-02-26T02:53:39.135Z,9.67
2019-02-26T02:56:09.842Z,9.67
2019-02-26T02:58:38.429Z,10.60
2019-02-26T03:01:05.555Z,10.33
2019-02-26T03:03:33.035Z,10.40
2019-02-26T03:06:01.797Z,9.97
2019-02-26T03:08:30.115Z,10.70
2019-02-26T03:10:57.584Z,10.73
2019-02-26T03:13:26.018Z,10.80
2019-02-26T03:15:56.631Z,10.20
2019-02-26T03:18:24.060Z,10.13
2019-02-26T03:21:10.981Z,10.57
2019-02-26T03:23:41.256Z,11.50
2019-02-26T03:26:10.048Z,11.40
2019-02-26T03:28:39.506Z,10.67
2019-02-26T03:31:06.595Z,11.60
2019-02-26T03:33:34.243Z,10.93
2019-02-26T03:36:05.460Z,10.07
2019-02-26T03:38:31.100Z,11.20
2019-02-26T03:41:01.107Z,10.67
2019-02-26T03:43:28.703Z,10.43
2019-02-26T03:45:57.274Z,11.53
2019-02-26T03:48:24.810Z,10.63
2019-02-26T03:50:52.374Z,10.90
2019-02-26T03:53:19.932Z,10.07
2019-02-26T03:55:47.418Z,10.97
2019-02-26T03:58:15.150Z,10.73
2019-02-26T04:00:43.940Z,10.63
2019-02-26T04:03:14.624Z,11.70
2019-02-26T04:05:41.428Z,11.30
2019-02-26T04:08:09.245Z,10.53
2019-02-26T04:10:37.008Z,10.13
2019-02-26T04:13:04.440Z,11.30
2019-02-26T04:15:33.470Z,10.10
2019-02-26T04:18:01.507Z,9.70
2019-02-26T04:20:29.098Z,10.30
2019-02-26T04:22:57.039Z,10.17
2019-02-26T04:25:57.615Z,11.03
2019-02-26T04:28:33.513Z,9.90
2019-02-26T04:31:35.552Z,10.83
2019-02-26T04:34:42.728Z,9.90
2019-02-26T04:37:47.112Z,10.27
2019-02-26T04:41:12.605Z,11.03
2019-02-26T04:44:08.060Z,10.70
2019-02-26T04:47:15.107Z,10.67
2019-02-26T04:49:43.176Z,11.07
2019-02-26T04:52:14.237Z,11.23
2019-02-26T04:54:40.388Z,11.47
2019-02-26T04:57:07.889Z,11.27
2019-02-26T04:59:37.898Z,12.03
2019-02-26T05:02:04.729Z,11.23
2019-02-26T05:04:34.106Z,12.30
2019-02-26T05:07:04.422Z,10.57
2019-02-26T05:09:33.341Z,11.47
2019-02-26T05:12:00.466Z,12.30
2019-02-26T05:14:28.319Z,11.43
2019-02-26T05:16:55.974Z,11.47
2019-02-26T05:19:24.394Z,10.60
2019-02-26T05:21:53.462Z,12.43
2019-02-26T05:24:21.834Z,11.97
2019-02-26T05:26:50.655Z,11.77
2019-02-26T05:29:18.361Z,11.37
2019-02-26T05:31:45.793Z,10.03
2019-02-26T05:34:18.167Z,10.33
2019-02-26T05:36:46.170Z,11.07
2019-02-26T05:39:14.619Z,11.47
2019-02-26T05:41:43.699Z,11.10
2019-02-26T05:44:11.264Z,11.13
2019-02-26T05:46:38.791Z,10.67
2019-02-26T05:49:09.708Z,11.33
2019-02-26T05:51:38.065Z,10.50
2019-02-26T05:54:07.756Z,10.00
2019-02-26T05:56:37.008Z,10.23
2019-02-26T05:59:06.788Z,12.07
2019-02-26T06:01:33.157Z,11.03
2019-02-26T06:04:00.652Z,11.50
2019-02-26T06:06:28.101Z,11.77
2019-02-26T06:08:57.429Z,12.13
2019-02-26T06:11:28.345Z,11.77
2019-02-26T06:13:56.299Z,12.00
2019-02-26T06:16:24.381Z,10.93
2019-02-26T06:18:54.447Z,11.57
2019-02-26T06:21:23.597Z,11.80
2019-02-26T06:23:51.730Z,11.80
2019-02-26T06:26:19.449Z,11.87
2019-02-26T06:28:52.923Z,12.10
2019-02-26T06:31:22.208Z,11.40
2019-02-26T06:33:50.697Z,12.23
2019-02-26T06:36:19.214Z,12.67
2019-02-26T06:38:49.710Z,11.57
2019-02-26T06:41:16.951Z,13.33
2019-02-26T06:43:47.715Z,12.30
2019-02-26T06:46:14.137Z,12.13
2019-02-26T06:48:41.596Z,12.30
2019-02-26T06:51:09.054Z,12.70
2019-02-26T06:53:36.520Z,12.27
2019-02-26T06:56:04.038Z,12.57
2019-02-26T06:58:31.515Z,12.63
2019-02-26T07:00:59.323Z,12.10
2019-02-26T07:03:26.784Z,13.20
2019-02-26T07:05:54.259Z,12.20
2019-02-26T07:08:23.677Z,12.20
2019-02-26T07:10:51.065Z,12.97
2019-02-26T07:13:18.482Z,12.23
2019-02-26T07:15:46.011Z,11.77
2019-02-26T07:18:16.945Z,13.30
2019-02-26T07:20:46.653Z,11.77
2019-02-26T07:23:12.926Z,12.70
2019-02-26T07:25:43.981Z,12.27
2019-02-26T07:28:10.847Z,12.30
2019-02-26T07:30:39.891Z,12.47
2019-02-26T07:33:09.846Z,13.17
2019-02-26T07:35:37.404Z,12.43
2019-02-26T07:38:06.495Z,13.80
2019-02-26T07:40:35.932Z,13.00
2019-02-26T07:43:06.998Z,13.37
2019-02-26T07:45:32.846Z,12.60
2019-02-26T07:48:01.010Z,13.27
2019-02-26T07:50:31.269Z,12.83
2019-02-26T07:52:59.410Z,13.63
2019-02-26T07:55:27.664Z,14.50
2019-02-26T07:57:55.312Z,14.63
2019-02-26T08:00:23.191Z,14.00
2019-02-26T08:02:52.028Z,14.90
2019-02-26T08:05:21.209Z,14.77
2019-02-26T08:07:51.227Z,15.17
2019-02-26T08:10:19.546Z,14.60
2019-02-26T08:12:47.212Z,14.70
2019-02-26T08:15:15.726Z,14.43
2019-02-26T08:17:45.575Z,13.27
2019-02-26T08:20:14.910Z,12.97
2019-02-26T08:22:42.513Z,13.37
2019-02-26T08:25:10.307Z,13.23
2019-02-26T08:27:37.993Z,12.77
2019-02-26T08:30:08.584Z,13.43
2019-02-26T08:32:36.155Z,14.83
2019-02-26T08:35:04.163Z,13.60
2019-02-26T08:37:31.667Z,13.93
2019-02-26T08:39:59.188Z,13.60
2019-02-26T08:42:26.669Z,13.47
2019-02-26T08:44:55.857Z,13.23
2019-02-26T08:47:23.572Z,12.23
2019-02-26T08:49:51.053Z,12.70
2019-02-26T08:52:21.507Z,13.57
2019-02-26T08:54:47.866Z,12.77
2019-02-26T08:57:15.344Z,12.23
2019-02-26T08:59:45.273Z,14.77
2019-02-26T09:02:12.129Z,13.37
2019-02-26T09:04:40.718Z,13.90
2019-02-26T09:07:08.867Z,13.67
2019-02-26T09:09:36.346Z,12.50
2019-02-26T09:12:03.797Z,13.47
2019-02-26T09:14:34.389Z,13.83
2019-02-26T09:17:02.074Z,12.88
2019-02-26T09:19:31.096Z,13.90
2019-02-26T09:21:59.494Z,14.05
2019-02-26T09:24:27.325Z,12.73
2019-02-26T09:26:57.230Z,12.58
2019-02-26T09:29:24.080Z,12.20
2019-02-26T09:31:51.736Z,13.25
2019-02-26T09:34:19.233Z,11.30
2019-02-26T09:36:50.634Z,10.25
2019-02-26T09:39:15.983Z,11.00
2019-02-26T09:41:45.541Z,11.83
2019-02-26T09:44:12.776Z,10.85
2019-02-26T09:46:41.951Z,11.45
2019-02-26T09:49:12.308Z,12.15
2019-02-26T09:51:39.970Z,11.78
2019-02-26T09:54:07.543Z,11.73
2019-02-26T09:56:35.026Z,12.20
2019-02-26T09:59:04.621Z,11.73
2019-02-26T10:01:33.690Z,13.35
2019-02-26T10:04:03.094Z,11.85
2019-02-26T10:06:30.397Z,12.73
2019-02-26T10:08:58.609Z,11.10
2019-02-26T10:11:28.030Z,10.95
2019-02-26T10:13:55.520Z,11.00
2019-02-26T10:16:23.898Z,10.82
2019-02-26T10:18:54.352Z,11.00
2019-02-26T10:21:21.581Z,12.15
2019-02-26T10:23:51.461Z,11.65
2019-02-26T10:26:18.355Z,11.55
2019-02-26T10:28:51.049Z,12.20
2019-02-26T10:31:15.419Z,11.78
2019-02-26T10:33:45.305Z,12.03
2019-02-26T10:36:15.398Z,10.72
2019-02-26T10:38:41.819Z,9.60
2019-02-26T10:41:09.293Z,9.95
2019-02-26T10:43:36.775Z,9.90
2019-02-26T10:46:04.255Z,9.38
2019-02-26T10:48:31.732Z,10.15
2019-02-26T10:50:59.218Z,9.70
2019-02-26T10:53:27.619Z,9.88
2019-02-26T10:55:55.071Z,9.10
2019-02-26T10:58:22.569Z,9.45
2019-02-26T11:00:55.519Z,9.25
2019-02-26T11:03:22.465Z,9.28
2019-02-26T11:05:52.148Z,9.90
2019-02-26T11:08:20.786Z,9.45
2019-02-26T11:10:50.236Z,9.88
2019-02-26T11:13:20.957Z,9.93
2019-02-26T11:15:48.867Z,10.20
2019-02-26T11:18:18.121Z,11.15
2019-02-26T11:20:49.703Z,10.03
2019-02-26T11:23:16.293Z,9.30
2019-02-26T11:25:43.760Z,9.33
2019-02-26T11:28:12.976Z,8.98
2019-02-26T11:30:40.809Z,8.58
2019-02-26T11:33:10.736Z,9.58
2019-02-26T11:35:39.692Z,11.53
2019-02-26T11:38:09.113Z,10.50
2019-02-26T11:40:36.191Z,9.15
2019-02-26T11:43:11.279Z,9.68
2019-02-26T11:45:35.191Z,8.55
2019-02-26T11:48:03.722Z,8.68
2019-02-26T11:50:31.692Z,8.38
2019-02-26T11:52:59.151Z,8.38
2019-02-26T11:55:29.200Z,7.83
2019-02-26T11:57:55.902Z,7.85
2019-02-26T12:00:33.849Z,8.68
2019-02-26T12:02:58.063Z,8.05
2019-02-26T12:05:31.453Z,7.85
2019-02-26T12:07:56.348Z,8.13
2019-02-26T12:10:27.109Z,6.33
2019-02-26T12:12:54.603Z,7.62
2019-02-26T12:15:23.163Z,7.33
2019-02-26T12:17:51.767Z,6.12
2019-02-26T12:20:21.890Z,6.50
2019-02-26T12:22:49.805Z,9.15
2019-02-26T12:25:18.852Z,7.20
2019-02-26T12:27:48.186Z,6.47
2019-02-26T12:30:37.656Z,6.10
2019-02-26T12:33:07.666Z,6.58
2019-02-26T12:35:38.009Z,5.65
2019-02-26T12:38:17.379Z,6.67
2019-02-26T12:40:37.919Z,6.65
2019-02-26T12:43:08.333Z,8.70
2019-02-26T12:45:38.700Z,8.78
2019-02-26T12:48:06.514Z,8.10
2019-02-26T12:50:36.749Z,9.40
2019-02-26T12:53:05.798Z,9.63
2019-02-26T12:55:35.869Z,9.15
2019-02-26T12:58:04.280Z,9.23
2019-02-26T13:00:34.951Z,9.00
2019-02-26T13:03:05.572Z,9.28
2019-02-26T13:05:35.312Z,9.03
2019-02-26T13:08:03.298Z,9.33
2019-02-26T13:10:31.288Z,9.33
2019-02-26T13:13:02.880Z,9.23
2019-02-26T13:15:28.668Z,9.18
2019-02-26T13:17:56.196Z,7.80
2019-02-26T13:20:23.739Z,8.10
2019-02-26T13:22:56.406Z,7.97
2019-02-26T13:25:34.543Z,7.25
2019-02-26T13:28:02.188Z,7.75
2019-02-26T13:30:30.084Z,7.20
2019-02-26T13:33:00.956Z,8.93
2019-02-26T13:35:27.279Z,9.15
2019-02-26T13:37:54.854Z,9.28
2019-02-26T13:40:22.439Z,8.98
2019-02-26T13:45:20.516Z,9.55
2019-02-26T13:47:48.592Z,8.53
2019-02-26T13:50:19.989Z,9.38
2019-02-26T13:52:47.577Z,8.55
2019-02-26T13:55:15.077Z,8.83
2019-02-26T13:57:42.564Z,8.70
2019-02-26T14:00:11.319Z,8.90
2019-02-26T14:02:38.882Z,8.50
2019-02-26T14:05:07.549Z,9.00
2019-02-26T14:07:37.684Z,7.47
2019-02-26T14:10:07.049Z,8.38
2019-02-26T14:12:35.551Z,8.38
2019-02-26T14:15:03.859Z,8.38
2019-02-26T14:17:31.809Z,8.63
2019-02-26T14:19:59.426Z,7.97
2019-02-26T14:22:27.019Z,8.05
2019-02-26T14:24:54.564Z,9.15
2019-02-26T14:27:22.083Z,8.28
2019-02-26T14:29:50.184Z,7.75
2019-02-26T14:32:17.735Z,7.90
2019-02-26T14:34:45.285Z,7.62
2019-02-26T14:37:12.847Z,5.85
2019-02-26T14:39:42.587Z,4.53
2019-02-26T14:42:10.469Z,4.35
2019-02-26T14:44:38.061Z,5.25
2019-02-26T14:47:06.148Z,5.00
2019-02-26T14:49:33.736Z,4.40
2019-02-26T14:52:01.255Z,5.25
2019-02-26T14:54:28.838Z,4.50
2019-02-26T14:56:56.411Z,4.65
2019-02-26T14:59:24.430Z,5.05
2019-02-26T15:01:51.958Z,4.83
2019-02-26T15:04:19.751Z,5.00
2019-02-26T15:06:47.295Z,5.08
2019-02-26T15:09:14.977Z,4.83
2019-02-26T15:11:42.719Z,4.37
2019-02-26T15:14:10.277Z,4.30
2019-02-26T15:16:37.806Z,4.47
2019-02-26T15:19:05.610Z,4.55
2019-02-26T15:21:33.170Z,7.17
2019-02-26T15:24:01.168Z,8.35
2019-02-26T15:26:28.759Z,8.20
2019-02-26T15:28:58.006Z,6.70
2019-02-26T15:31:26.423Z,6.40
2019-02-26T15:33:54.879Z,6.35
2019-02-26T15:36:23.024Z,7.05
2019-02-26T15:39:21.423Z,7.70
2019-02-26T15:41:50.555Z,8.45
2019-02-26T15:44:18.189Z,8.83
2019-02-26T15:46:46.152Z,10.10
2019-02-26T15:49:14.088Z,7.95
2019-02-26T15:51:41.623Z,7.25
2019-02-26T15:54:12.557Z,8.53
2019-02-26T15:56:40.930Z,7.97
2019-02-26T15:59:08.472Z,8.60
2019-02-26T16:01:36.044Z,9.00
2019-02-26T16:04:03.654Z,8.98
2019-02-26T16:06:31.333Z,9.13
2019-02-26T16:08:58.900Z,8.50
2019-02-26T16:11:27.157Z,8.85
2019-02-26T16:13:54.979Z,8.50
2019-02-26T16:16:22.523Z,8.58
2019-02-26T16:18:50.034Z,9.20
2019-02-26T16:21:19.292Z,9.05
2019-02-26T16:23:47.031Z,8.35
2019-02-26T16:26:14.750Z,9.53
2019-02-26T16:28:42.753Z,10.88
2019-02-26T16:31:10.290Z,8.90
2019-02-26T16:33:37.862Z,8.28
2019-02-26T16:36:05.453Z,8.00
2019-02-26T16:38:33.240Z,7.62
2019-02-26T16:41:02.819Z,6.83
2019-02-26T16:43:30.256Z,6.78
2019-02-26T16:45:57.799Z,7.47
2019-02-26T16:48:25.410Z,8.90
2019-02-26T16:50:52.940Z,7.90
2019-02-26T16:53:20.506Z,7.83
2019-02-26T16:55:49.137Z,8.63
2019-02-26T16:58:17.406Z,8.95
2019-02-26T17:00:46.525Z,8.33
2019-02-26T17:03:14.470Z,9.70
2019-02-26T17:05:42.154Z,9.33
2019-02-26T17:08:12.297Z,8.43
2019-02-26T17:10:40.094Z,8.23
2019-02-26T17:13:07.691Z,10.53
2019-02-26T17:15:35.587Z,11.57
2019-02-26T17:18:03.315Z,9.20
2019-02-26T17:20:30.814Z,9.95
2019-02-26T17:22:58.273Z,9.75
2019-02-26T17:25:28.474Z,10.00
2019-02-26T17:27:55.542Z,10.23
2019-02-26T17:30:23.879Z,12.10
2019-02-26T17:32:52.095Z,11.40
2019-02-26T17:35:19.569Z,11.68
2019-02-26T17:37:47.089Z,8.75
2019-02-26T17:40:15.617Z,8.53
2019-02-26T17:42:43.819Z,7.47
2019-02-26T17:45:13.576Z,9.10
2019-02-26T17:47:41.565Z,9.80
2019-02-26T17:50:12.595Z,8.13
2019-02-26T17:52:40.186Z,8.25
2019-02-26T17:55:09.497Z,8.08
2019-02-26T17:57:37.168Z,7.35
2019-02-26T18:00:06.968Z,8.28
2019-02-26T18:02:35.129Z,9.78
2019-02-26T18:05:02.803Z,9.80
2019-02-26T18:07:31.939Z,12.03
2019-02-26T18:09:59.890Z,10.80
2019-02-26T18:12:28.100Z,9.83
2019-02-26T18:14:56.179Z,11.95
2019-02-26T18:17:23.940Z,11.80
2019-02-26T18:19:52.177Z,10.90
2019-02-26T18:22:21.881Z,9.75
2019-02-26T18:24:49.417Z,10.13
2019-02-26T18:27:17.300Z,9.00
2019-02-26T18:29:44.865Z,9.95
2019-02-26T18:32:12.473Z,9.68
2019-02-26T18:34:40.014Z,10.38
2019-02-26T18:37:07.592Z,10.58
2019-02-26T18:39:35.061Z,9.60
2019-02-26T18:42:02.584Z,10.72
2019-02-26T18:44:30.105Z,11.12
2019-02-26T18:46:57.668Z,11.53
2019-02-26T18:49:25.508Z,10.60
2019-02-26T18:51:52.962Z,10.38
2019-02-26T18:54:21.105Z,10.98
2019-02-26T18:56:48.739Z,10.60
2019-02-26T18:59:16.288Z,10.10
2019-02-26T19:01:43.784Z,11.70
2019-02-26T19:04:11.303Z,11.33
2019-02-26T19:06:38.852Z,12.50
2019-02-26T19:09:07.152Z,12.40
2019-02-26T19:11:34.748Z,11.80
2019-02-26T19:14:02.552Z,13.77
2019-02-26T19:16:30.042Z,11.83
2019-02-26T19:18:58.207Z,12.50
2019-02-26T19:21:26.024Z,12.87
2019-02-26T19:23:53.592Z,13.37
2019-02-26T19:26:23.715Z,10.77
2019-02-26T19:28:51.428Z,10.87
2019-02-26T19:31:18.899Z,12.23
2019-02-26T19:33:46.466Z,13.33
2019-02-26T19:36:14.065Z,12.47
2019-02-26T19:38:41.656Z,12.53
2019-02-26T19:41:12.654Z,14.07
2019-02-26T19:43:40.316Z,12.70
2019-02-26T19:46:07.797Z,10.27
2019-02-26T19:48:35.291Z,10.23
2019-02-26T19:51:02.860Z,9.93
2019-02-26T19:53:34.435Z,11.00
2019-02-26T19:56:00.566Z,10.40
2019-02-26T19:58:28.165Z,11.47
2019-02-26T20:00:55.743Z,10.97
2019-02-26T20:03:23.219Z,11.43
2019-02-26T20:05:50.775Z,14.53
2019-02-26T20:08:18.665Z,10.50
2019-02-26T20:10:48.744Z,10.50
2019-02-26T20:13:17.938Z,11.57
2019-02-26T20:15:45.433Z,11.70
2019-02-26T20:18:20.607Z,12.03
2019-02-26T20:20:45.665Z,10.90
2019-02-26T20:23:12.958Z,11.40
2019-02-26T20:25:42.470Z,11.80
2019-02-26T20:28:11.118Z,11.30
2019-02-26T20:30:38.659Z,10.43
2019-02-26T20:33:06.759Z,10.73
2019-02-26T20:35:34.829Z,11.30
2019-02-26T20:38:02.322Z,12.00
2019-02-26T20:40:29.913Z,11.67
2019-02-26T20:43:01.334Z,10.80
2019-02-26T20:45:26.716Z,11.77
2019-02-26T20:47:54.202Z,11.17
2019-02-26T20:50:23.400Z,9.90
2019-02-26T20:52:51.019Z,11.50
2019-02-26T20:55:19.254Z,10.23
2019-02-26T20:57:47.407Z,10.30
2019-02-26T21:00:16.176Z,10.40
2019-02-26T21:02:43.674Z,9.00
2019-02-26T21:05:11.309Z,9.47
2019-02-26T21:07:39.085Z,10.67
2019-02-26T21:10:07.513Z,9.07
2019-02-26T21:12:34.994Z,7.63
2019-02-26T21:15:02.721Z,8.80
2019-02-26T21:17:30.183Z,8.87
2019-02-26T21:19:57.722Z,9.40
2019-02-26T21:22:25.268Z,9.27
2019-02-26T21:24:52.767Z,9.57
2019-02-26T21:27:20.294Z,9.87
2019-02-26T21:29:47.766Z,11.07
2019-02-26T21:32:15.429Z,11.00
2019-02-26T21:34:42.998Z,11.90
2019-02-26T21:37:10.503Z,12.50
2019-02-26T21:39:37.979Z,12.23
2019-02-26T21:42:05.455Z,13.40
2019-02-26T21:44:32.948Z,12.43
2019-02-26T21:47:00.450Z,13.27
2019-02-26T21:49:27.914Z,12.37
2019-02-26T21:51:55.412Z,11.60
2019-02-26T21:54:24.813Z,11.73
2019-02-26T21:56:52.252Z,9.20
2019-02-26T21:59:19.707Z,10.37
2019-02-26T22:01:47.356Z,10.03
2019-02-26T22:04:14.908Z,9.87
2019-02-26T22:06:44.482Z,9.70
2019-02-26T22:09:12.086Z,9.77
2019-02-26T22:11:39.583Z,10.13
2019-02-26T22:14:07.109Z,9.73
2019-02-26T22:16:34.593Z,9.90
2019-02-26T22:19:02.165Z,9.67
2019-02-26T22:21:31.352Z,10.07
2019-02-26T22:23:58.859Z,10.13
2019-02-26T22:26:26.597Z,9.40
2019-02-26T22:28:54.165Z,10.27
2019-02-26T22:31:21.637Z,10.37
2019-02-26T22:33:49.519Z,10.17
2019-02-26T22:36:17.019Z,10.13
2019-02-26T22:38:46.146Z,10.47
2019-02-26T22:41:14.174Z,10.07
2019-02-26T22:43:41.628Z,9.60
2019-02-26T22:46:09.169Z,9.27
2019-02-26T22:48:36.959Z,8.67
2019-02-26T22:51:04.858Z,9.30
2019-02-26T22:53:36.420Z,10.17
2019-02-26T22:56:01.673Z,9.43
2019-02-26T22:58:29.425Z,10.53
2019-02-26T23:01:19.526Z,9.93
2019-02-26T23:03:47.047Z,9.30
2019-02-26T23:06:14.981Z,9.20
2019-02-26T23:08:44.869Z,9.53
2019-02-26T23:11:13.399Z,9.03
2019-02-26T23:13:41.114Z,9.07
2019-02-26T23:16:08.691Z,8.77
2019-02-26T23:18:36.235Z,7.47
2019-02-26T23:21:03.846Z,8.57
2019-02-26T23:23:31.301Z,8.80
2019-02-26T23:25:58.780Z,9.40
2019-02-26T23:28:26.275Z,9.40
2019-02-26T23:30:54.115Z,9.27
2019-02-26T23:33:21.651Z,8.50
2019-02-26T23:35:49.178Z,9.93
2019-02-26T23:38:16.672Z,10.47
2019-02-26T23:40:44.167Z,10.57
2019-02-26T23:43:12.469Z,10.90
2019-02-26T23:45:40.277Z,11.03
2019-02-26T23:48:08.700Z,12.00
2019-02-26T23:50:36.343Z,11.47
2019-02-26T23:53:03.931Z,11.67
2019-02-26T23:55:31.380Z,12.67
2019-02-26T23:57:58.862Z,12.73
